Time;durP1;ratioP1;P1;durP2;ratioP2;P2;SDS_P1;SDS_P2;PMS_P1;PMS_P2;Temp;Humidity;BMP_temperature;BMP_pressure;BME280_temperature;BME280_humidity;BME280_pressure;Samples;Min_cycle;Max_cycle;Signal;HPM_P1;HPM_P2
2023/08/22 00:00:13;;;;;;;;;;;23.20;99.90;;;;;;5059608;28;19925;-66
2023/08/22 00:02:41;;;;;;;;;;;23.20;99.90;;;;;;5061670;28;19974;-66
2023/08/22 00:05:09;;;;;;;;;;;23.20;99.90;;;;;;5052650;28;19928;-67
2023/08/22 00:07:38;;;;;;;;;;;23.20;99.90;;;;;;5055173;28;19977;-67
2023/08/22 00:10:07;;;;;;;;;;;23.20;99.90;;;;;;5062285;28;19928;-67
2023/08/22 00:12:35;;;;;;;;;;;23.20;99.90;;;;;;5062978;28;19978;-66
2023/08/22 00:15:05;;;;;;;;;;;23.20;99.90;;;;;;5062324;28;19925;-66
2023/08/22 00:17:34;;;;;;;;;;;23.20;99.90;;;;;;5063859;28;19924;-66
2023/08/22 00:20:04;;;;;;;;;;;23.10;99.90;;;;;;5061665;28;19928;-67
2023/08/22 00:22:31;;;;;;;;;;;23.00;99.90;;;;;;5064488;28;20608;-66
2023/08/22 00:24:59;;;;;;;;;;;23.00;99.90;;;;;;5050162;28;19925;-66
2023/08/22 00:27:27;;;;;;;;;;;22.90;99.90;;;;;;5051739;28;19929;-67
2023/08/22 00:29:55;;;;;;;;;;;22.90;99.90;;;;;;5047540;28;19929;-67
2023/08/22 00:32:23;;;;;;;;;;;22.90;99.90;;;;;;5053151;28;20372;-67
2023/08/22 00:34:52;;;;;;;;;;;22.90;99.90;;;;;;5062472;28;19982;-66
2023/08/22 00:37:20;;;;;;;;;;;22.90;99.90;;;;;;5058544;28;19960;-66
2023/08/22 00:39:48;;;;;;;;;;;22.90;99.90;;;;;;5056281;28;19971;-66
2023/08/22 00:42:16;;;;;;;;;;;22.90;99.90;;;;;;5055583;28;20349;-67
2023/08/22 00:44:43;;;;;;;;;;;22.90;99.90;;;;;;5053779;28;19928;-66
2023/08/22 00:47:11;;;;;;;;;;;22.90;99.90;;;;;;5049392;28;19924;-66
2023/08/22 00:49:39;;;;;;;;;;;22.90;99.90;;;;;;5047662;28;20547;-66
2023/08/22 00:52:08;;;;;;;;;;;22.80;99.90;;;;;;5054937;28;19928;-67
2023/08/22 00:54:36;;;;;;;;;;;22.80;99.90;;;;;;5052965;28;19924;-68
2023/08/22 00:57:04;;;;;;;;;;;22.80;99.90;;;;;;5062541;28;19925;-67
2023/08/22 00:59:32;;;;;;;;;;;22.90;99.90;;;;;;5053792;28;20410;-67
2023/08/22 01:02:00;;;;;;;;;;;22.90;99.90;;;;;;5057429;28;20058;-67
2023/08/22 01:04:28;;;;;;;;;;;22.90;99.90;;;;;;5051390;28;19970;-67
2023/08/22 01:06:57;;;;;;;;;;;22.90;99.90;;;;;;5051162;28;19925;-67
2023/08/22 01:09:29;;;;;;;;;;;23.00;99.90;;;;;;5055395;28;19933;-67
2023/08/22 01:12:00;;;;;;;;;;;23.00;99.90;;;;;;5053216;28;19943;-67
2023/08/22 01:14:29;;;;;;;;;;;22.90;99.90;;;;;;5059789;28;19928;-68
2023/08/22 01:16:57;;;;;;;;;;;23.00;99.90;;;;;;5053864;28;19936;-65
2023/08/22 01:19:29;;;;;;;;;;;23.20;99.90;;;;;;5056572;28;19931;-67
2023/08/22 01:21:58;;;;;;;;;;;23.40;99.90;;;;;;5065792;28;19978;-66
2023/08/22 01:24:25;;;;;;;;;;;23.40;99.90;;;;;;5058185;28;19978;-66
2023/08/22 01:26:53;;;;;;;;;;;23.40;99.90;;;;;;5047826;28;19929;-66
2023/08/22 01:29:23;;;;;;;;;;;23.40;99.90;;;;;;5059450;28;19924;-66
2023/08/22 01:31:53;;;;;;;;;;;23.50;99.90;;;;;;5052598;28;19931;-66
2023/08/22 01:34:23;;;;;;;;;;;23.40;99.90;;;;;;5055543;28;19925;-66
2023/08/22 01:36:53;;;;;;;;;;;23.40;99.90;;;;;;5048478;28;19929;-66
2023/08/22 01:39:23;;;;;;;;;;;23.40;99.90;;;;;;5052047;28;19931;-66
2023/08/22 01:41:51;;;;;;;;;;;23.50;99.90;;;;;;5063233;28;20288;-66
2023/08/22 01:44:19;;;;;;;;;;;23.50;99.90;;;;;;5058339;28;19932;-66
2023/08/22 01:46:47;;;;;;;;;;;23.40;99.90;;;;;;5062298;28;20252;-66
2023/08/22 01:49:14;;;;;;;;;;;23.30;99.90;;;;;;5058156;28;19929;-66
2023/08/22 01:51:42;;;;;;;;;;;23.30;99.90;;;;;;5050313;28;19994;-66
2023/08/22 01:54:10;;;;;;;;;;;23.30;99.90;;;;;;5060016;28;20010;-66
2023/08/22 01:56:39;;;;;;;;;;;23.20;99.90;;;;;;5062655;28;19977;-67
2023/08/22 01:59:07;;;;;;;;;;;23.20;99.90;;;;;;5046411;28;20350;-66
2023/08/22 02:01:35;;;;;;;;;;;23.10;99.90;;;;;;5050344;28;19948;-67
2023/08/22 02:04:03;;;;;;;;;;;23.00;99.90;;;;;;5054123;28;20444;-67
2023/08/22 02:06:31;;;;;;;;;;;23.10;99.90;;;;;;5054851;28;19925;-67
2023/08/22 02:08:59;;;;;;;;;;;23.10;99.90;;;;;;5062328;28;19928;-67
2023/08/22 02:11:27;;;;;;;;;;;23.00;99.90;;;;;;5056138;28;20358;-67
2023/08/22 02:13:56;;;;;;;;;;;23.00;99.90;;;;;;5054854;28;19977;-67
2023/08/22 02:16:24;;;;;;;;;;;23.00;99.90;;;;;;5060032;28;19940;-66
2023/08/22 02:18:52;;;;;;;;;;;22.90;99.90;;;;;;5063695;28;20357;-67
2023/08/22 02:21:20;;;;;;;;;;;22.90;99.90;;;;;;5052861;28;19978;-67
2023/08/22 02:23:48;;;;;;;;;;;23.00;99.90;;;;;;5051468;28;19928;-67
2023/08/22 02:26:16;;;;;;;;;;;22.90;99.90;;;;;;5059115;28;19932;-67
2023/08/22 02:28:44;;;;;;;;;;;22.90;99.90;;;;;;5062314;28;20067;-67
2023/08/22 02:31:13;;;;;;;;;;;22.90;99.90;;;;;;5053765;28;19925;-67
2023/08/22 02:33:41;;;;;;;;;;;22.90;99.90;;;;;;5053671;28;20044;-67
2023/08/22 02:36:09;;;;;;;;;;;22.90;99.90;;;;;;5054628;28;19978;-67
2023/08/22 02:38:39;;;;;;;;;;;22.90;99.90;;;;;;5054654;28;20366;-67
2023/08/22 02:41:07;;;;;;;;;;;22.90;99.90;;;;;;5054588;28;19925;-67
2023/08/22 02:43:35;;;;;;;;;;;22.80;99.90;;;;;;5054414;28;20265;-67
2023/08/22 02:46:02;;;;;;;;;;;22.70;99.90;;;;;;5054383;28;20392;-67
2023/08/22 02:48:32;;;;;;;;;;;22.60;99.90;;;;;;5054352;28;19931;-67
2023/08/22 02:51:00;;;;;;;;;;;22.40;99.90;;;;;;5054301;28;19978;-66
2023/08/22 02:53:27;;;;;;;;;;;22.20;99.90;;;;;;5054118;28;19929;-67
2023/08/22 02:55:55;;;;;;;;;;;22.10;99.90;;;;;;5057758;28;19981;-67
2023/08/22 02:58:23;;;;;;;;;;;21.90;99.90;;;;;;5057894;28;19925;-67
2023/08/22 03:00:51;;;;;;;;;;;21.80;99.90;;;;;;5057646;28;19925;-67
2023/08/22 03:03:19;;;;;;;;;;;21.60;99.90;;;;;;5101702;22;19923;-69
2023/08/22 03:05:49;;;;;;;;;;;21.50;99.90;;;;;;5080874;28;19933;-69
2023/08/22 03:08:16;;;;;;;;;;;21.40;99.90;;;;;;5088947;28;19924;-69
2023/08/22 03:10:44;;;;;;;;;;;21.40;99.90;;;;;;5084733;28;19932;-69
2023/08/22 03:13:12;;;;;;;;;;;21.30;99.90;;;;;;5081107;28;19928;-70
2023/08/22 03:15:39;;;;;;;;;;;21.30;99.90;;;;;;5064458;28;20342;-69
2023/08/22 03:18:07;;;;;;;;;;;21.30;99.90;;;;;;5072292;28;20015;-69
2023/08/22 03:20:35;;;;;;;;;;;21.30;99.90;;;;;;5070356;28;19928;-69
2023/08/22 03:23:06;;;;;;;;;;;21.80;99.90;;;;;;5066795;28;19991;-69
2023/08/22 03:25:33;;;;;;;;;;;21.90;99.90;;;;;;5070811;28;19929;-70
2023/08/22 03:28:01;;;;;;;;;;;22.10;99.90;;;;;;5070844;28;19925;-69
2023/08/22 03:30:29;;;;;;;;;;;22.30;99.90;;;;;;5063368;28;19970;-72
2023/08/22 03:32:57;;;;;;;;;;;22.30;99.90;;;;;;5067706;28;19934;-70
2023/08/22 03:35:24;;;;;;;;;;;22.40;99.90;;;;;;5065357;28;19935;-69
2023/08/22 03:37:52;;;;;;;;;;;22.40;99.90;;;;;;5069539;28;20440;-69
2023/08/22 03:40:21;;;;;;;;;;;22.60;99.90;;;;;;5066876;28;19929;-69
2023/08/22 03:42:49;;;;;;;;;;;22.60;99.90;;;;;;5061661;28;20457;-70
2023/08/22 03:45:17;;;;;;;;;;;22.60;99.90;;;;;;5069036;28;19925;-69
2023/08/22 03:47:45;;;;;;;;;;;22.60;99.90;;;;;;5070612;28;19943;-69
2023/08/22 03:50:12;;;;;;;;;;;22.70;99.90;;;;;;5071097;28;19924;-69
2023/08/22 03:52:40;;;;;;;;;;;22.70;99.90;;;;;;5069631;28;20383;-68
2023/08/22 03:55:08;;;;;;;;;;;22.70;99.90;;;;;;5070153;28;19939;-69
2023/08/22 03:57:37;;;;;;;;;;;22.80;99.90;;;;;;5070683;28;19943;-69
2023/08/22 04:00:06;;;;;;;;;;;22.90;99.90;;;;;;5066380;28;20003;-70
2023/08/22 04:02:34;;;;;;;;;;;22.90;99.90;;;;;;5071039;28;19928;-69
2023/08/22 04:05:02;;;;;;;;;;;23.00;99.90;;;;;;5054973;28;19978;-69
2023/08/22 04:07:30;;;;;;;;;;;22.90;99.90;;;;;;5067674;28;20011;-69
2023/08/22 04:09:57;;;;;;;;;;;22.90;99.90;;;;;;5066472;28;19924;-68
2023/08/22 04:12:25;;;;;;;;;;;22.80;99.90;;;;;;5071138;28;20081;-69
2023/08/22 04:14:54;;;;;;;;;;;22.70;99.90;;;;;;5070197;28;20439;-69
2023/08/22 04:17:22;;;;;;;;;;;22.60;99.90;;;;;;5063935;28;19936;-68
2023/08/22 04:19:50;;;;;;;;;;;22.60;99.90;;;;;;5059370;28;20330;-68
2023/08/22 04:22:17;;;;;;;;;;;22.50;99.90;;;;;;5060444;28;20429;-68
2023/08/22 04:24:45;;;;;;;;;;;22.50;99.90;;;;;;5060451;28;19935;-69
2023/08/22 04:27:13;;;;;;;;;;;22.50;99.90;;;;;;5056292;28;19931;-72
2023/08/22 04:29:42;;;;;;;;;;;22.40;99.90;;;;;;5056941;28;20353;-72
2023/08/22 04:32:11;;;;;;;;;;;22.50;99.90;;;;;;5060363;28;19937;-68
2023/08/22 04:34:39;;;;;;;;;;;22.40;99.90;;;;;;5058915;28;20812;-70
2023/08/22 04:37:06;;;;;;;;;;;22.50;99.90;;;;;;5058196;28;19939;-70
2023/08/22 04:39:34;;;;;;;;;;;22.40;99.90;;;;;;5058493;28;19936;-70
2023/08/22 04:42:02;;;;;;;;;;;22.30;99.90;;;;;;5060028;28;19986;-72
2023/08/22 04:44:30;;;;;;;;;;;22.20;99.90;;;;;;5058727;28;20007;-71
2023/08/22 04:46:57;;;;;;;;;;;22.00;99.90;;;;;;5057609;28;20622;-70
2023/08/22 04:49:27;;;;;;;;;;;21.70;99.90;;;;;;5062544;28;19932;-68
2023/08/22 04:51:54;;;;;;;;;;;21.50;99.90;;;;;;5061233;28;19928;-68
2023/08/22 04:54:22;;;;;;;;;;;21.40;99.90;;;;;;5061210;28;19994;-67
2023/08/22 04:56:50;;;;;;;;;;;21.40;99.90;;;;;;5054122;28;19937;-71
2023/08/22 04:59:18;;;;;;;;;;;21.50;99.90;;;;;;5059531;28;20009;-68
2023/08/22 05:01:45;;;;;;;;;;;21.40;99.90;;;;;;5057770;28;19936;-69
2023/08/22 05:04:13;;;;;;;;;;;21.50;99.90;;;;;;5057770;28;19924;-68
2023/08/22 05:06:42;;;;;;;;;;;21.80;99.90;;;;;;5057424;28;19982;-69
2023/08/22 05:09:10;;;;;;;;;;;21.90;99.90;;;;;;5057661;28;20403;-68
2023/08/22 05:11:39;;;;;;;;;;;22.10;99.90;;;;;;5057998;28;19928;-72
2023/08/22 05:14:07;;;;;;;;;;;22.20;99.90;;;;;;5059393;28;19933;-69
2023/08/22 05:16:37;;;;;;;;;;;22.10;99.90;;;;;;5055726;28;21373;-68
2023/08/22 05:19:05;;;;;;;;;;;22.20;99.90;;;;;;5058376;28;19947;-68
2023/08/22 05:21:33;;;;;;;;;;;22.20;99.90;;;;;;5058627;28;20298;-69
2023/08/22 05:24:02;;;;;;;;;;;22.20;99.90;;;;;;5057077;28;20292;-70
2023/08/22 05:26:30;;;;;;;;;;;22.10;99.90;;;;;;5055043;28;19974;-73
2023/08/22 05:28:57;;;;;;;;;;;22.00;99.90;;;;;;5059789;28;19933;-69
2023/08/22 05:31:26;;;;;;;;;;;22.10;99.90;;;;;;5060536;28;19936;-68
2023/08/22 05:33:54;;;;;;;;;;;22.30;99.90;;;;;;5060791;28;19986;-68
2023/08/22 05:36:22;;;;;;;;;;;22.50;99.90;;;;;;5058176;28;19932;-68
2023/08/22 05:38:49;;;;;;;;;;;22.50;99.90;;;;;;5059870;28;19940;-72
2023/08/22 05:41:18;;;;;;;;;;;22.40;99.90;;;;;;5059836;28;19932;-71
2023/08/22 05:43:46;;;;;;;;;;;22.30;99.90;;;;;;5059437;28;20934;-71
2023/08/22 05:46:14;;;;;;;;;;;22.30;99.90;;;;;;5059158;28;20011;-69
2023/08/22 05:48:42;;;;;;;;;;;22.30;99.90;;;;;;5060369;28;20011;-70
2023/08/22 05:51:10;;;;;;;;;;;22.20;99.90;;;;;;5058210;28;20740;-70
2023/08/22 05:53:37;;;;;;;;;;;22.20;99.90;;;;;;5056757;28;19937;-68
2023/08/22 05:56:05;;;;;;;;;;;22.20;99.90;;;;;;5056128;28;19954;-69
2023/08/22 05:58:35;;;;;;;;;;;22.30;99.90;;;;;;5058505;28;20203;-69
2023/08/22 06:01:07;;;;;;;;;;;22.40;99.90;;;;;;5058673;28;20327;-71
2023/08/22 06:03:34;;;;;;;;;;;22.30;99.90;;;;;;5059431;28;20053;-69
2023/08/22 06:06:02;;;;;;;;;;;22.40;99.90;;;;;;5058261;28;19933;-71
2023/08/22 06:08:30;;;;;;;;;;;22.50;99.90;;;;;;5059254;28;19982;-68
2023/08/22 06:10:58;;;;;;;;;;;22.80;99.90;;;;;;5059872;28;19933;-68
2023/08/22 06:13:26;;;;;;;;;;;22.90;99.90;;;;;;5065237;28;19924;-70
2023/08/22 06:15:56;;;;;;;;;;;22.80;99.90;;;;;;5077288;28;19931;-69
2023/08/22 06:18:24;;;;;;;;;;;22.90;99.90;;;;;;5074117;28;20012;-69
2023/08/22 06:20:51;;;;;;;;;;;23.00;99.90;;;;;;5073437;28;19924;-68
2023/08/22 06:23:20;;;;;;;;;;;23.10;99.90;;;;;;5071177;28;19987;-68
2023/08/22 06:25:48;;;;;;;;;;;23.30;99.90;;;;;;5064879;28;19928;-68
2023/08/22 06:28:15;;;;;;;;;;;23.30;99.90;;;;;;5070343;28;20543;-69
2023/08/22 06:30:43;;;;;;;;;;;23.30;99.90;;;;;;5070871;28;19928;-68
2023/08/22 06:33:12;;;;;;;;;;;23.30;99.90;;;;;;5070656;28;19924;-68
2023/08/22 06:35:40;;;;;;;;;;;23.40;99.90;;;;;;5071345;28;19925;-68
2023/08/22 06:38:08;;;;;;;;;;;23.40;99.90;;;;;;5070687;28;19932;-68
2023/08/22 06:40:36;;;;;;;;;;;23.40;99.90;;;;;;5070944;28;19924;-68
2023/08/22 06:43:04;;;;;;;;;;;23.50;99.90;;;;;;5070771;28;19928;-68
2023/08/22 06:45:32;;;;;;;;;;;23.60;99.90;;;;;;5070886;28;19924;-69
2023/08/22 06:47:59;;;;;;;;;;;23.70;99.90;;;;;;5070534;28;19924;-68
2023/08/22 06:50:29;;;;;;;;;;;23.70;99.90;;;;;;5070837;28;19960;-68
2023/08/22 06:52:57;;;;;;;;;;;23.80;99.90;;;;;;5074408;28;19924;-69
2023/08/22 06:55:25;;;;;;;;;;;23.90;99.90;;;;;;5074570;28;19977;-68
2023/08/22 06:57:53;;;;;;;;;;;23.90;99.90;;;;;;5074216;28;19969;-68
2023/08/22 07:00:21;;;;;;;;;;;24.00;99.90;;;;;;5074184;28;20379;-68
2023/08/22 07:02:49;;;;;;;;;;;24.00;99.90;;;;;;5074030;28;19924;-68
2023/08/22 07:05:17;;;;;;;;;;;24.10;99.90;;;;;;5066567;28;19925;-68
2023/08/22 07:07:46;;;;;;;;;;;24.10;99.90;;;;;;5074138;28;19924;-68
2023/08/22 07:10:14;;;;;;;;;;;24.30;99.90;;;;;;5074016;28;19924;-69
2023/08/22 07:12:45;;;;;;;;;;;24.30;99.90;;;;;;5074127;28;20384;-68
2023/08/22 07:15:13;;;;;;;;;;;24.40;99.90;;;;;;5073875;28;20387;-68
2023/08/22 07:17:41;;;;;;;;;;;24.40;99.90;;;;;;5073925;28;19931;-68
2023/08/22 07:20:12;;;;;;;;;;;24.40;99.90;;;;;;5073808;28;19974;-68
2023/08/22 07:22:40;;;;;;;;;;;24.50;99.90;;;;;;5074013;28;19936;-69
2023/08/22 07:25:10;;;;;;;;;;;24.50;99.90;;;;;;5073935;28;19924;-69
2023/08/22 07:27:38;;;;;;;;;;;24.50;99.90;;;;;;5073767;28;20015;-69
2023/08/22 07:30:07;;;;;;;;;;;24.60;99.90;;;;;;5073302;28;19925;-68
2023/08/22 07:32:34;;;;;;;;;;;24.70;99.90;;;;;;5073881;28;20038;-69
2023/08/22 07:35:02;;;;;;;;;;;24.80;99.90;;;;;;5073561;28;20035;-69
2023/08/22 07:37:30;;;;;;;;;;;25.00;99.90;;;;;;5073604;28;19928;-69
2023/08/22 07:39:58;;;;;;;;;;;25.10;99.90;;;;;;5073435;28;19924;-69
2023/08/22 07:42:27;;;;;;;;;;;25.20;99.90;;;;;;5073855;28;19925;-69
2023/08/22 07:44:55;;;;;;;;;;;25.20;99.90;;;;;;5073603;28;19928;-69
2023/08/22 07:47:22;;;;;;;;;;;25.30;99.90;;;;;;5073745;28;20401;-68
2023/08/22 07:49:50;;;;;;;;;;;25.50;99.90;;;;;;5073341;28;19936;-69
2023/08/22 07:52:18;;;;;;;;;;;25.60;99.90;;;;;;5073406;28;19932;-69
2023/08/22 07:54:46;;;;;;;;;;;25.80;99.90;;;;;;5073398;28;19929;-68
2023/08/22 07:57:14;;;;;;;;;;;25.80;99.90;;;;;;5073347;28;19925;-68
2023/08/22 07:59:47;;;;;;;;;;;25.90;99.90;;;;;;5072868;28;19932;-68
2023/08/22 08:02:15;;;;;;;;;;;25.90;99.90;;;;;;5072034;28;19932;-69
2023/08/22 08:04:43;;;;;;;;;;;25.90;99.90;;;;;;5072822;28;20457;-68
2023/08/22 08:07:11;;;;;;;;;;;25.90;99.90;;;;;;5073184;28;20379;-69
2023/08/22 08:09:38;;;;;;;;;;;26.10;99.90;;;;;;5072852;28;19931;-68
2023/08/22 08:12:07;;;;;;;;;;;26.30;99.90;;;;;;5073056;28;19931;-69
2023/08/22 08:14:34;;;;;;;;;;;26.40;99.90;;;;;;5073080;28;19977;-69
2023/08/22 08:17:04;;;;;;;;;;;26.50;99.90;;;;;;5072881;28;20303;-69
2023/08/22 08:19:32;;;;;;;;;;;26.50;99.90;;;;;;5072603;28;19924;-69
2023/08/22 08:21:59;;;;;;;;;;;26.60;99.90;;;;;;5072873;28;19924;-69
2023/08/22 08:24:27;;;;;;;;;;;26.80;99.90;;;;;;5072919;28;19925;-69
2023/08/22 08:26:55;;;;;;;;;;;26.90;99.90;;;;;;5072915;28;19929;-69
2023/08/22 08:29:23;;;;;;;;;;;27.10;99.90;;;;;;5072686;28;20019;-69
2023/08/22 08:31:51;;;;;;;;;;;27.20;99.90;;;;;;5072496;28;19928;-68
2023/08/22 08:34:20;;;;;;;;;;;27.30;99.90;;;;;;5072324;28;19928;-69
2023/08/22 08:36:49;;;;;;;;;;;27.40;99.90;;;;;;5073018;28;19935;-69
2023/08/22 08:39:18;;;;;;;;;;;27.60;99.90;;;;;;5072227;28;19971;-69
2023/08/22 08:41:50;;;;;;;;;;;27.80;99.90;;;;;;5072420;28;19994;-69
2023/08/22 08:44:17;;;;;;;;;;;28.10;99.90;;;;;;5072420;28;19924;-69
2023/08/22 08:46:48;;;;;;;;;;;28.30;99.90;;;;;;5072613;28;19929;-69
2023/08/22 08:49:16;;;;;;;;;;;28.70;99.90;;;;;;5072008;28;19925;-69
2023/08/22 08:51:46;;;;;;;;;;;28.80;99.90;;;;;;5072242;28;20028;-69
2023/08/22 08:54:14;;;;;;;;;;;28.80;99.90;;;;;;5072067;28;20333;-69
2023/08/22 08:56:42;;;;;;;;;;;28.90;99.90;;;;;;5072254;28;19947;-69
2023/08/22 08:59:10;;;;;;;;;;;29.10;99.90;;;;;;5072220;28;19974;-69
2023/08/22 09:01:38;;;;;;;;;;;29.00;99.90;;;;;;5071937;28;20536;-69
2023/08/22 09:04:06;;;;;;;;;;;29.20;99.90;;;;;;5103757;22;19924;-68
2023/08/22 09:06:34;;;;;;;;;;;29.10;99.90;;;;;;5083766;28;19925;-68
2023/08/22 09:09:05;;;;;;;;;;;29.40;99.90;;;;;;5083333;28;19950;-68
2023/08/22 09:11:33;;;;;;;;;;;29.60;99.90;;;;;;5080288;28;19932;-68
2023/08/22 09:14:01;;;;;;;;;;;29.80;99.90;;;;;;5088116;28;19981;-68
2023/08/22 09:16:28;;;;;;;;;;;29.90;99.90;;;;;;5084077;28;20213;-68
2023/08/22 09:19:00;;;;;;;;;;;30.00;99.90;;;;;;5091975;28;19935;-69
2023/08/22 09:21:28;;;;;;;;;;;30.10;99.90;;;;;;5075581;28;20284;-68
2023/08/22 09:24:08;;;;;;;;;;;30.10;99.90;;;;;;5091944;28;20027;-68
2023/08/22 09:26:36;;;;;;;;;;;30.20;99.90;;;;;;5077574;28;20026;-68
2023/08/22 09:29:04;;;;;;;;;;;30.50;99.90;;;;;;5091606;28;19923;-67
2023/08/22 09:31:34;;;;;;;;;;;30.60;99.90;;;;;;5071631;28;19989;-68
2023/08/22 09:34:09;;;;;;;;;;;30.90;99.90;;;;;;5079703;28;19928;-68
2023/08/22 09:36:43;;;;;;;;;;;31.00;99.90;;;;;;5077609;28;20474;-68
2023/08/22 09:39:13;;;;;;;;;;;31.10;99.90;;;;;;5091414;28;19928;-68
2023/08/22 09:41:41;;;;;;;;;;;31.10;99.90;;;;;;5091651;28;19925;-67
2023/08/22 09:44:10;;;;;;;;;;;31.20;99.90;;;;;;5091449;28;19928;-67
2023/08/22 09:46:39;;;;;;;;;;;31.20;99.90;;;;;;5091764;28;19924;-68
2023/08/22 09:49:07;;;;;;;;;;;31.20;99.90;;;;;;5091240;28;20298;-68
2023/08/22 09:51:36;;;;;;;;;;;31.30;99.90;;;;;;5091492;28;19932;-68
2023/08/22 09:54:04;;;;;;;;;;;31.40;99.90;;;;;;5091617;28;20035;-68
2023/08/22 09:56:36;;;;;;;;;;;31.20;99.90;;;;;;5083822;28;19989;-68
2023/08/22 09:59:04;;;;;;;;;;;31.00;99.90;;;;;;5091346;28;19931;-68
2023/08/22 10:01:34;;;;;;;;;;;31.00;99.90;;;;;;5083221;28;19987;-68
2023/08/22 10:04:03;;;;;;;;;;;30.80;99.90;;;;;;5091044;28;19928;-68
2023/08/22 10:06:32;;;;;;;;;;;31.00;99.90;;;;;;5074865;28;19924;-68
2023/08/22 10:09:14;;;;;;;;;;;31.50;99.90;;;;;;5091492;28;20306;-68
2023/08/22 10:11:46;;;;;;;;;;;31.80;99.90;;;;;;5091201;28;19928;-68
2023/08/22 10:14:15;;;;;;;;;;;32.20;99.90;;;;;;5091106;28;19924;-68
2023/08/22 10:16:45;;;;;;;;;;;32.20;99.90;;;;;;5091500;28;19924;-68
2023/08/22 10:19:13;;;;;;;;;;;32.20;99.90;;;;;;5091330;28;19924;-68
2023/08/22 10:21:46;;;;;;;;;;;32.00;99.90;;;;;;5091290;28;19924;-68
2023/08/22 10:24:19;;;;;;;;;;;32.00;99.90;;;;;;5091104;28;19928;-69
2023/08/22 10:26:58;;;;;;;;;;;32.30;99.90;;;;;;5093546;28;19974;-68
2023/08/22 10:29:32;;;;;;;;;;;32.70;99.90;;;;;;5091962;28;19974;-67
2023/08/22 10:32:17;;;;;;;;;;;32.90;99.90;;;;;;5074976;28;19929;-68
2023/08/22 10:35:03;;;;;;;;;;;33.00;99.90;;;;;;5088406;28;19969;-68
2023/08/22 10:37:31;;;;;;;;;;;33.20;99.90;;;;;;5094978;28;19935;-68
2023/08/22 10:39:59;;;;;;;;;;;33.40;99.90;;;;;;5094882;28;19924;-67
2023/08/22 10:42:29;;;;;;;;;;;33.50;99.90;;;;;;5094990;28;19924;-68
2023/08/22 10:44:58;;;;;;;;;;;33.80;99.90;;;;;;5095077;28;19977;-68
2023/08/22 10:47:26;;;;;;;;;;;33.70;99.90;;;;;;5094774;28;20353;-68
2023/08/22 10:49:55;;;;;;;;;;;33.70;99.90;;;;;;5094610;28;19970;-68
2023/08/22 10:52:42;;;;;;;;;;;33.80;99.50;;;;;;5095002;28;19931;-69
2023/08/22 10:55:12;;;;;;;;;;;33.80;98.60;;;;;;5094860;28;19932;-68
2023/08/22 10:57:43;;;;;;;;;;;33.80;97.80;;;;;;5079352;28;19924;-68
2023/08/22 11:00:21;;;;;;;;;;;33.50;97.70;;;;;;5085284;28;19924;-68
2023/08/22 11:02:50;;;;;;;;;;;33.30;98.10;;;;;;5079835;28;19979;-68
2023/08/22 11:05:18;;;;;;;;;;;33.00;99.50;;;;;;5094284;28;20299;-68
2023/08/22 11:07:48;;;;;;;;;;;32.80;99.90;;;;;;5094625;28;19975;-69
2023/08/22 11:10:16;;;;;;;;;;;33.00;99.90;;;;;;5094470;28;19931;-68
2023/08/22 11:12:46;;;;;;;;;;;32.90;98.50;;;;;;5094450;28;19946;-68
2023/08/22 11:15:15;;;;;;;;;;;32.70;97.90;;;;;;5094239;28;20019;-69
2023/08/22 11:17:43;;;;;;;;;;;32.70;98.10;;;;;;5094426;28;19927;-68
2023/08/22 11:20:12;;;;;;;;;;;33.00;97.60;;;;;;5093998;28;19924;-68
2023/08/22 11:22:40;;;;;;;;;;;33.30;97.70;;;;;;5078228;28;19924;-69
2023/08/22 11:25:08;;;;;;;;;;;33.70;97.60;;;;;;5094212;28;19924;-68
2023/08/22 11:27:37;;;;;;;;;;;34.00;95.70;;;;;;5094103;28;20029;-69
2023/08/22 11:30:07;;;;;;;;;;;34.20;96.60;;;;;;5085896;28;19924;-68
2023/08/22 11:32:36;;;;;;;;;;;34.60;97.10;;;;;;5076623;28;19947;-68
2023/08/22 11:35:05;;;;;;;;;;;34.80;95.80;;;;;;5094076;28;19924;-69
2023/08/22 11:37:33;;;;;;;;;;;35.00;95.70;;;;;;5093505;28;19924;-69
2023/08/22 11:40:01;;;;;;;;;;;35.50;93.60;;;;;;5093648;28;19928;-68
2023/08/22 11:42:30;;;;;;;;;;;35.40;92.70;;;;;;5093802;28;20386;-69
2023/08/22 11:44:59;;;;;;;;;;;35.30;92.00;;;;;;5093775;28;19924;-68
2023/08/22 11:47:37;;;;;;;;;;;35.40;94.70;;;;;;5093762;28;19924;-69
2023/08/22 11:50:05;;;;;;;;;;;35.70;93.50;;;;;;5093512;28;19931;-69
2023/08/22 11:52:33;;;;;;;;;;;36.10;92.30;;;;;;5094077;28;19970;-69
2023/08/22 11:55:04;;;;;;;;;;;36.40;91.00;;;;;;5093686;28;19924;-69
2023/08/22 11:57:32;;;;;;;;;;;36.40;91.30;;;;;;5093572;28;19930;-69
2023/08/22 12:00:01;;;;;;;;;;;36.30;90.10;;;;;;5085880;28;19974;-69
2023/08/22 12:02:28;;;;;;;;;;;36.00;89.40;;;;;;5074732;28;19932;-68
2023/08/22 12:04:58;;;;;;;;;;;35.50;88.60;;;;;;5093174;28;20315;-69
2023/08/22 12:07:26;;;;;;;;;;;34.90;90.60;;;;;;5093362;28;19924;-68
2023/08/22 12:09:58;;;;;;;;;;;34.20;90.70;;;;;;5093226;28;19957;-68
2023/08/22 12:12:26;;;;;;;;;;;34.00;90.90;;;;;;5093287;28;19924;-68
2023/08/22 12:14:54;;;;;;;;;;;33.80;91.20;;;;;;5093207;28;19924;-68
2023/08/22 12:17:21;;;;;;;;;;;33.80;92.40;;;;;;5093076;28;20314;-69
2023/08/22 12:19:49;;;;;;;;;;;34.00;91.70;;;;;;5093164;28;20333;-69
2023/08/22 12:22:18;;;;;;;;;;;34.10;90.60;;;;;;5093245;28;20387;-69
2023/08/22 12:24:48;;;;;;;;;;;34.60;91.00;;;;;;5077123;28;19932;-68
2023/08/22 12:27:16;;;;;;;;;;;34.70;87.90;;;;;;5086148;28;19924;-69
2023/08/22 12:29:45;;;;;;;;;;;34.80;87.90;;;;;;5078083;28;19931;-70
2023/08/22 12:32:13;;;;;;;;;;;35.00;88.50;;;;;;5072781;28;19929;-68
2023/08/22 12:34:40;;;;;;;;;;;35.40;89.40;;;;;;5092168;28;20008;-69
2023/08/22 12:37:08;;;;;;;;;;;35.50;87.80;;;;;;5093080;28;19947;-69
2023/08/22 12:39:37;;;;;;;;;;;35.90;89.20;;;;;;5087120;28;19924;-69
2023/08/22 12:42:05;;;;;;;;;;;36.00;89.10;;;;;;5092449;28;19931;-69
2023/08/22 12:44:33;;;;;;;;;;;36.30;88.30;;;;;;5092434;28;19993;-69
2023/08/22 12:47:01;;;;;;;;;;;36.60;87.40;;;;;;5092745;28;19924;-69
2023/08/22 12:49:29;;;;;;;;;;;37.10;87.00;;;;;;5092058;28;19924;-69
2023/08/22 12:51:56;;;;;;;;;;;37.40;85.50;;;;;;5092436;28;19924;-69
2023/08/22 12:54:24;;;;;;;;;;;37.40;86.40;;;;;;5092368;28;20344;-68
2023/08/22 12:56:56;;;;;;;;;;;36.80;88.60;;;;;;5092517;28;19924;-69
2023/08/22 12:59:23;;;;;;;;;;;36.90;87.00;;;;;;5090316;28;19971;-69
2023/08/22 13:01:51;;;;;;;;;;;37.00;86.40;;;;;;5079617;28;20343;-69
2023/08/22 13:04:19;;;;;;;;;;;37.40;86.30;;;;;;5088132;28;19955;-69
2023/08/22 13:06:47;;;;;;;;;;;37.30;84.30;;;;;;5092760;28;19924;-69
2023/08/22 13:09:15;;;;;;;;;;;37.10;83.50;;;;;;5092367;28;19924;-69
2023/08/22 13:11:43;;;;;;;;;;;36.90;82.90;;;;;;5091783;28;20378;-69
2023/08/22 13:14:12;;;;;;;;;;;37.10;86.10;;;;;;5092342;28;19924;-69
2023/08/22 13:16:40;;;;;;;;;;;36.90;88.00;;;;;;5092091;28;19931;-69
2023/08/22 13:19:08;;;;;;;;;;;36.90;83.90;;;;;;5092105;28;19982;-69
2023/08/22 13:21:35;;;;;;;;;;;37.30;84.70;;;;;;5091699;28;19936;-69
2023/08/22 13:24:04;;;;;;;;;;;37.40;83.30;;;;;;5091953;28;19928;-69
2023/08/22 13:26:32;;;;;;;;;;;36.90;83.20;;;;;;5091987;28;20405;-69
2023/08/22 13:28:59;;;;;;;;;;;37.00;82.90;;;;;;5092002;28;19928;-69
2023/08/22 13:31:29;;;;;;;;;;;36.90;81.50;;;;;;5080545;28;19925;-69
2023/08/22 13:33:56;;;;;;;;;;;36.30;83.70;;;;;;5084560;28;20019;-68
2023/08/22 13:36:26;;;;;;;;;;;36.00;84.00;;;;;;5091614;28;19969;-70
2023/08/22 13:38:54;;;;;;;;;;;36.20;85.40;;;;;;5091775;28;19928;-69
2023/08/22 13:41:22;;;;;;;;;;;36.70;81.50;;;;;;5091448;28;19924;-69
2023/08/22 13:43:49;;;;;;;;;;;37.00;81.30;;;;;;5091515;28;19970;-69
2023/08/22 13:46:17;;;;;;;;;;;37.50;80.10;;;;;;5091749;28;19979;-69
2023/08/22 13:48:47;;;;;;;;;;;37.70;81.00;;;;;;5091602;28;19927;-69
2023/08/22 13:51:16;;;;;;;;;;;37.70;79.10;;;;;;5091243;28;19928;-69
2023/08/22 13:53:44;;;;;;;;;;;38.00;79.90;;;;;;5091379;28;19930;-69
2023/08/22 13:56:13;;;;;;;;;;;37.80;79.30;;;;;;5091674;28;19969;-69
2023/08/22 13:58:40;;;;;;;;;;;38.00;78.50;;;;;;5091407;28;19996;-70
2023/08/22 14:01:08;;;;;;;;;;;38.10;75.30;;;;;;5079910;28;20019;-69
2023/08/22 14:03:36;;;;;;;;;;;38.40;75.00;;;;;;5082519;28;19928;-69
2023/08/22 14:06:05;;;;;;;;;;;38.60;75.40;;;;;;5091769;28;19924;-69
2023/08/22 14:08:33;;;;;;;;;;;38.90;73.80;;;;;;5091499;28;19928;-70
2023/08/22 14:11:01;;;;;;;;;;;39.10;74.90;;;;;;5091127;28;20300;-69
2023/08/22 14:13:29;;;;;;;;;;;39.00;75.30;;;;;;5091129;28;19930;-69
2023/08/22 14:15:57;;;;;;;;;;;38.90;73.60;;;;;;5091285;28;20341;-69
2023/08/22 14:18:25;;;;;;;;;;;38.30;78.30;;;;;;5091379;28;19924;-70
2023/08/22 14:20:53;;;;;;;;;;;38.10;77.30;;;;;;5090794;28;19924;-69
2023/08/22 14:23:22;;;;;;;;;;;37.40;80.50;;;;;;5091309;28;20004;-69